createdAt,value
2019-01-16T00:01:40.138Z,3.60
2019-01-16T00:04:25.941Z,3.00
2019-01-16T00:07:12.338Z,3.10
2019-01-16T00:10:03.430Z,3.43
2019-01-16T00:13:03.085Z,3.57
2019-01-16T00:15:39.521Z,3.40
2019-01-16T00:18:19.714Z,2.80
2019-01-16T00:21:06.077Z,3.07
2019-01-16T00:23:48.389Z,2.70
2019-01-16T00:26:34.061Z,2.90
2019-01-16T00:29:14.840Z,3.10
2019-01-16T00:32:02.570Z,2.80
2019-01-16T00:34:43.393Z,2.63
2019-01-16T00:37:40.197Z,4.17
2019-01-16T00:40:38.225Z,3.93
2019-01-16T00:43:14.837Z,3.43
2019-01-16T00:46:05.545Z,3.27
2019-01-16T00:48:56.535Z,4.67
2019-01-16T00:51:42.724Z,4.07
2019-01-16T00:54:32.793Z,3.67
2019-01-16T00:57:18.432Z,4.43
2019-01-16T01:00:04.617Z,4.27
2019-01-16T01:02:55.393Z,3.87
2019-01-16T01:05:51.980Z,3.77
2019-01-16T01:08:45.522Z,4.23
2019-01-16T01:11:36.054Z,4.53
2019-01-16T01:14:23.822Z,4.53
2019-01-16T01:17:10.214Z,4.40
2019-01-16T01:19:56.686Z,3.77
2019-01-16T01:22:46.745Z,4.40
2019-01-16T01:25:32.890Z,4.03
2019-01-16T01:28:27.935Z,3.97
2019-01-16T01:31:22.302Z,3.70
2019-01-16T01:34:13.034Z,4.23
2019-01-16T01:37:09.818Z,3.73
2019-01-16T01:40:03.413Z,4.40
2019-01-16T01:42:56.997Z,4.03
2019-01-16T01:45:43.173Z,4.70
2019-01-16T01:48:39.909Z,3.97
2019-01-16T01:51:22.321Z,4.50
2019-01-16T01:54:10.085Z,4.40
2019-01-16T01:56:49.887Z,3.87
2019-01-16T01:59:37.655Z,4.40
2019-01-16T02:02:15.654Z,4.10
2019-01-16T02:04:59.757Z,4.03
2019-01-16T02:07:41.231Z,3.90
2019-01-16T02:10:28.922Z,4.10
2019-01-16T02:13:25.497Z,3.90
2019-01-16T02:16:06.078Z,5.00
2019-01-16T02:18:47.463Z,3.97
2019-01-16T02:21:37.886Z,4.50
2019-01-16T02:24:37.682Z,4.70
2019-01-16T02:27:30.011Z,4.93
2019-01-16T02:30:17.030Z,4.20
2019-01-16T02:33:03.435Z,4.30
2019-01-16T02:35:47.094Z,4.67
2019-01-16T02:38:29.313Z,4.43
2019-01-16T02:41:15.406Z,4.20
2019-01-16T02:44:01.823Z,4.50
2019-01-16T02:46:41.958Z,4.23
2019-01-16T02:49:22.667Z,4.50
2019-01-16T02:52:01.667Z,5.03
2019-01-16T02:54:52.545Z,4.17
2019-01-16T02:57:37.137Z,5.10
2019-01-16T03:00:40.086Z,4.80
2019-01-16T03:03:26.399Z,5.50
2019-01-16T03:06:29.057Z,5.00
2019-01-16T03:09:09.698Z,4.67
2019-01-16T03:11:55.394Z,5.07
2019-01-16T03:14:48.990Z,5.07
2019-01-16T03:17:37.502Z,4.60
2019-01-16T03:20:20.105Z,5.47
2019-01-16T03:23:08.837Z,5.00
2019-01-16T03:25:49.130Z,5.97
2019-01-16T03:28:32.133Z,5.70
2019-01-16T03:31:12.103Z,5.23
2019-01-16T03:33:51.585Z,5.77
2019-01-16T03:36:42.316Z,5.20
2019-01-16T03:39:17.610Z,5.97
2019-01-16T03:42:00.308Z,6.30
2019-01-16T03:44:34.732Z,5.93
2019-01-16T03:47:31.370Z,6.07
2019-01-16T03:50:17.907Z,5.83
2019-01-16T03:53:05.609Z,5.77
2019-01-16T03:55:56.396Z,7.47
2019-01-16T03:58:35.385Z,8.33
2019-01-16T04:01:25.761Z,7.77
2019-01-16T04:04:11.869Z,7.93
2019-01-16T04:06:58.336Z,7.20
2019-01-16T04:09:44.741Z,8.37
2019-01-16T04:12:34.518Z,7.67
2019-01-16T04:15:30.618Z,8.27
2019-01-16T04:18:25.115Z,8.27
2019-01-16T04:21:24.857Z,8.53
2019-01-16T04:24:06.401Z,8.57
2019-01-16T04:27:03.209Z,8.00
2019-01-16T04:29:49.421Z,8.37
2019-01-16T04:32:33.594Z,7.90
2019-01-16T04:35:15.072Z,8.03
2019-01-16T04:38:08.848Z,7.73
2019-01-16T04:40:53.075Z,8.63
2019-01-16T04:43:30.969Z,8.70
2019-01-16T04:46:16.940Z,7.93
2019-01-16T04:48:52.866Z,8.30
2019-01-16T04:51:49.549Z,8.23
2019-01-16T04:54:31.057Z,8.90
2019-01-16T04:57:17.229Z,8.13
2019-01-16T05:00:04.970Z,7.83
2019-01-16T05:03:10.580Z,8.47
2019-01-16T05:05:57.085Z,9.43
2019-01-16T05:08:38.604Z,8.80
2019-01-16T05:11:26.429Z,8.93
2019-01-16T05:14:14.136Z,9.33
2019-01-16T05:17:08.716Z,9.40
2019-01-16T05:19:47.478Z,9.10
2019-01-16T05:22:47.397Z,8.53
2019-01-16T05:25:33.539Z,8.53
2019-01-16T05:28:21.723Z,8.73
2019-01-16T05:31:24.293Z,9.40
2019-01-16T05:34:10.698Z,10.37
2019-01-16T05:36:57.104Z,9.60
2019-01-16T05:39:34.096Z,8.57
2019-01-16T05:42:30.598Z,9.20
2019-01-16T05:45:18.354Z,8.60
2019-01-16T05:47:59.661Z,9.50
2019-01-16T05:50:40.510Z,9.23
2019-01-16T05:53:34.116Z,10.20
2019-01-16T05:56:20.505Z,8.47
2019-01-16T05:59:08.195Z,8.83
2019-01-16T06:01:54.282Z,8.57
2019-01-16T06:04:33.981Z,9.27
2019-01-16T06:07:20.366Z,9.73
2019-01-16T06:10:14.153Z,10.13
2019-01-16T06:13:01.867Z,9.53
2019-01-16T06:15:44.149Z,9.63
2019-01-16T06:18:30.278Z,10.40
2019-01-16T06:21:21.870Z,10.07
2019-01-16T06:24:12.807Z,9.27
2019-01-16T06:27:00.512Z,10.70
2019-01-16T06:29:54.082Z,11.37
2019-01-16T06:32:41.742Z,11.40
2019-01-16T06:35:20.747Z,11.53
2019-01-16T06:38:06.857Z,11.80
2019-01-16T06:40:47.722Z,11.00
2019-01-16T06:43:50.397Z,10.63
2019-01-16T06:46:36.491Z,10.53
2019-01-16T06:49:36.838Z,11.20
2019-01-16T06:52:39.557Z,10.50
2019-01-16T06:55:30.193Z,10.10
2019-01-16T06:58:09.966Z,11.13
2019-01-16T07:00:48.178Z,11.00
2019-01-16T07:03:46.102Z,10.13
2019-01-16T07:06:22.128Z,10.43
2019-01-16T07:09:12.573Z,10.40
2019-01-16T07:11:58.762Z,10.57
2019-01-16T07:14:58.578Z,11.07
2019-01-16T07:17:45.738Z,10.43
2019-01-16T07:20:24.904Z,10.67
2019-01-16T07:23:13.442Z,11.67
2019-01-16T07:26:04.218Z,11.13
2019-01-16T07:28:48.101Z,11.10
2019-01-16T07:31:29.989Z,10.93
2019-01-16T07:34:13.568Z,11.03
2019-01-16T07:37:13.451Z,12.77
2019-01-16T07:40:07.265Z,12.23
2019-01-16T07:42:48.165Z,12.83
2019-01-16T07:45:27.180Z,12.17
2019-01-16T07:48:20.785Z,12.00
2019-01-16T07:51:14.376Z,11.57
2019-01-16T07:54:10.919Z,12.10
2019-01-16T07:56:58.629Z,12.63
2019-01-16T07:59:46.386Z,10.53
2019-01-16T08:02:43.294Z,11.33
2019-01-16T08:05:44.761Z,11.70
2019-01-16T08:08:26.689Z,12.23
2019-01-16T08:11:17.483Z,11.70
2019-01-16T08:14:02.149Z,11.73
2019-01-16T08:16:49.858Z,11.33
2019-01-16T08:19:37.617Z,12.37
2019-01-16T08:22:22.601Z,10.57
2019-01-16T08:25:08.969Z,10.43
2019-01-16T08:27:59.756Z,11.20
2019-01-16T08:30:45.991Z,11.30
2019-01-16T08:33:27.769Z,12.13
2019-01-16T08:36:23.714Z,11.20
2019-01-16T08:39:09.938Z,11.33
2019-01-16T08:41:56.413Z,10.43
2019-01-16T08:44:42.794Z,10.83
2019-01-16T08:47:24.980Z,10.60
2019-01-16T08:50:24.625Z,10.23
2019-01-16T08:53:12.314Z,10.90
2019-01-16T08:55:58.501Z,10.17
2019-01-16T08:58:51.258Z,9.33
2019-01-16T09:01:37.361Z,10.80
2019-01-16T09:04:24.342Z,10.20
2019-01-16T09:07:30.111Z,9.97
2019-01-16T09:10:16.654Z,9.63
2019-01-16T09:13:03.027Z,9.63
2019-01-16T09:15:42.001Z,9.77
2019-01-16T09:18:32.381Z,8.93
2019-01-16T09:21:14.709Z,8.77
2019-01-16T09:23:55.876Z,9.00
2019-01-16T09:26:35.505Z,8.67
2019-01-16T09:29:20.767Z,7.97
2019-01-16T09:32:17.705Z,8.53
2019-01-16T09:35:17.445Z,8.80
2019-01-16T09:38:03.537Z,7.80
2019-01-16T09:40:49.879Z,8.80
2019-01-16T09:43:48.861Z,7.87
2019-01-16T09:46:28.811Z,8.83
2019-01-16T09:49:09.641Z,8.40
2019-01-16T09:51:53.065Z,9.10
2019-01-16T09:54:42.330Z,9.20
2019-01-16T09:57:42.203Z,8.40
2019-01-16T10:00:37.711Z,8.07
2019-01-16T10:03:24.281Z,7.83
2019-01-16T10:06:05.980Z,7.33
2019-01-16T10:08:49.455Z,8.10
2019-01-16T10:11:40.229Z,8.30
2019-01-16T10:14:42.793Z,8.20
2019-01-16T10:17:27.702Z,8.00
2019-01-16T10:20:17.189Z,7.37
2019-01-16T10:23:03.458Z,7.90
2019-01-16T10:25:54.330Z,7.23
2019-01-16T10:28:52.029Z,7.10
2019-01-16T10:31:42.571Z,6.93
2019-01-16T10:34:21.489Z,6.67
2019-01-16T10:37:09.029Z,7.67
2019-01-16T10:39:58.393Z,6.80
2019-01-16T10:42:37.749Z,6.37
2019-01-16T10:45:24.297Z,6.87
2019-01-16T10:48:08.947Z,5.77
2019-01-16T10:50:53.945Z,6.47
2019-01-16T10:53:47.630Z,6.60
2019-01-16T10:56:33.809Z,6.03
2019-01-16T10:59:10.038Z,6.13
2019-01-16T11:01:46.570Z,6.07
2019-01-16T11:04:33.038Z,6.60
2019-01-16T11:07:38.946Z,6.07
2019-01-16T11:10:29.617Z,5.37
2019-01-16T11:13:15.698Z,4.97
2019-01-16T11:16:08.109Z,5.23
2019-01-16T11:19:01.305Z,5.20
2019-01-16T11:21:49.371Z,5.30
2019-01-16T11:24:35.747Z,5.20
2019-01-16T11:27:25.245Z,6.10
2019-01-16T11:30:11.649Z,6.20
2019-01-16T11:32:58.137Z,5.40
2019-01-16T11:35:44.506Z,5.50
2019-01-16T11:38:31.026Z,5.47
2019-01-16T11:41:10.770Z,5.93
2019-01-16T11:43:53.917Z,6.60
2019-01-16T11:46:31.242Z,6.17
2019-01-16T11:49:17.494Z,5.20
2019-01-16T11:51:57.191Z,5.70
2019-01-16T11:54:40.636Z,5.50
2019-01-16T11:57:40.333Z,5.80
2019-01-16T12:00:25.700Z,5.57
2019-01-16T12:03:19.368Z,5.30
2019-01-16T12:06:02.121Z,6.23
2019-01-16T12:08:42.073Z,6.13
2019-01-16T12:11:19.034Z,5.73
2019-01-16T12:14:05.735Z,5.90
2019-01-16T12:16:52.246Z,6.20
2019-01-16T12:19:39.890Z,5.93
2019-01-16T12:22:26.477Z,6.07
2019-01-16T12:25:12.989Z,5.70
2019-01-16T12:27:52.779Z,5.63
2019-01-16T12:30:46.430Z,5.63
2019-01-16T12:33:46.042Z,5.80
2019-01-16T12:36:32.453Z,5.70
2019-01-16T12:39:14.270Z,5.57
2019-01-16T12:42:02.439Z,4.77
2019-01-16T12:44:50.577Z,4.47
2019-01-16T12:47:47.501Z,4.70
2019-01-16T12:50:34.029Z,5.00
2019-01-16T12:53:27.869Z,5.03
2019-01-16T12:56:14.017Z,4.93
2019-01-16T12:59:01.785Z,4.60
2019-01-16T13:01:42.043Z,4.83
2019-01-16T13:04:28.449Z,4.40
2019-01-16T13:07:17.490Z,5.03
2019-01-16T13:10:08.540Z,4.47
2019-01-16T13:12:51.281Z,4.90
2019-01-16T13:15:28.297Z,4.60
2019-01-16T13:18:11.673Z,4.83
2019-01-16T13:21:14.554Z,4.37
2019-01-16T13:24:05.049Z,4.40
2019-01-16T13:26:55.517Z,5.03
2019-01-16T13:29:41.678Z,4.50
2019-01-16T13:32:41.744Z,4.40
2019-01-16T13:35:29.134Z,4.13
2019-01-16T13:38:35.542Z,4.20
2019-01-16T13:41:23.243Z,4.30
2019-01-16T13:44:23.637Z,4.03
2019-01-16T13:47:13.073Z,3.30
2019-01-16T13:50:01.907Z,4.20
2019-01-16T13:52:59.914Z,3.70
2019-01-16T13:55:50.805Z,3.57
2019-01-16T13:58:41.526Z,3.87
2019-01-16T14:01:31.988Z,3.67
2019-01-16T14:04:17.195Z,3.83
2019-01-16T14:07:07.857Z,4.20
2019-01-16T14:09:54.062Z,4.33
2019-01-16T14:12:59.985Z,4.07
2019-01-16T14:15:56.930Z,4.07
2019-01-16T14:18:44.697Z,4.10
2019-01-16T14:21:44.270Z,4.23
2019-01-16T14:24:30.414Z,3.80
2019-01-16T14:29:51.193Z,4.10
2019-01-16T14:32:51.167Z,3.60
2019-01-16T14:35:50.555Z,4.50
2019-01-16T14:38:42.069Z,4.80
2019-01-16T14:41:44.490Z,4.10
2019-01-16T14:47:52.374Z,6.40
2019-01-16T14:50:59.353Z,5.73
2019-01-16T14:53:55.486Z,5.23
2019-01-16T14:57:02.472Z,5.20
2019-01-16T15:00:09.427Z,6.00
2019-01-16T15:03:16.461Z,5.50
2019-01-16T15:06:23.409Z,7.40
2019-01-16T15:09:30.390Z,8.70
2019-01-16T15:12:37.346Z,7.83
2019-01-16T15:18:44.337Z,6.67
2019-01-16T15:21:45.042Z,5.47
2019-01-16T15:24:38.501Z,4.77
2019-01-16T15:27:45.454Z,4.07
2019-01-16T15:30:52.435Z,4.20
2019-01-16T15:33:52.158Z,5.03
2019-01-16T15:36:49.667Z,4.87
2019-01-16T15:39:45.029Z,4.50
2019-01-16T15:42:45.205Z,4.33
2019-01-16T15:45:47.690Z,4.50
2019-01-16T15:48:47.757Z,5.47
2019-01-16T15:51:41.014Z,6.00
2019-01-16T15:54:35.534Z,7.03
2019-01-16T15:57:35.597Z,6.30
2019-01-16T16:00:34.994Z,5.97
2019-01-16T16:03:27.885Z,7.00
2019-01-16T16:06:27.901Z,9.63
2019-01-16T16:09:17.098Z,10.60
2019-01-16T16:12:08.941Z,13.03
2019-01-16T16:15:08.911Z,14.70
2019-01-16T16:18:08.326Z,10.87
2019-01-16T16:21:08.018Z,9.60
2019-01-16T16:24:07.402Z,9.53
2019-01-16T16:27:14.313Z,8.20
2019-01-16T16:30:01.579Z,8.57
2019-01-16T16:33:01.854Z,9.03
2019-01-16T16:35:53.928Z,8.40
2019-01-16T16:38:55.063Z,9.17
2019-01-16T16:41:54.458Z,8.40
2019-01-16T16:44:53.865Z,9.03
2019-01-16T16:47:53.526Z,8.77
2019-01-16T16:54:01.110Z,7.23
2019-01-16T16:57:08.346Z,7.33
2019-01-16T17:00:15.323Z,7.40
2019-01-16T17:03:22.310Z,7.13
2019-01-16T17:06:29.267Z,7.27
2019-01-16T17:09:36.446Z,7.47
2019-01-16T17:12:43.474Z,8.10
2019-01-16T17:15:50.475Z,7.50
2019-01-16T17:18:57.526Z,8.53
2019-01-16T17:22:04.506Z,8.50
2019-01-16T17:25:11.496Z,8.23
2019-01-16T17:28:18.458Z,8.20
2019-01-16T17:31:25.456Z,10.13
2019-01-16T17:34:32.407Z,8.53
2019-01-16T17:37:39.398Z,9.77
2019-01-16T17:40:39.390Z,10.20
2019-01-16T17:43:39.442Z,13.37
2019-01-16T17:46:39.282Z,13.63
2019-01-16T17:49:38.774Z,14.27
2019-01-16T17:52:38.973Z,13.10
2019-01-16T17:55:38.813Z,12.80
2019-01-16T17:58:38.218Z,12.90
2019-01-16T18:01:28.090Z,14.50
2019-01-16T18:04:30.853Z,14.20
2019-01-16T18:07:30.413Z,13.53
2019-01-16T18:10:25.561Z,11.77
2019-01-16T18:13:25.666Z,13.77
2019-01-16T18:16:25.086Z,12.47
2019-01-16T18:19:24.604Z,13.17
2019-01-16T18:22:21.137Z,12.47
2019-01-16T18:25:21.130Z,11.53
2019-01-16T18:28:21.017Z,12.87
2019-01-16T18:31:26.409Z,13.63
2019-01-16T18:34:17.245Z,11.63
2019-01-16T18:37:17.543Z,11.50
2019-01-16T18:40:17.610Z,12.90
2019-01-16T18:43:17.978Z,11.83
2019-01-16T18:46:17.660Z,10.97
2019-01-16T18:49:17.141Z,11.60
2019-01-16T18:52:09.798Z,12.10
2019-01-16T18:54:59.386Z,14.07
2019-01-16T18:57:51.682Z,15.20
2019-01-16T19:00:51.454Z,15.20
2019-01-16T19:03:51.683Z,14.63
2019-01-16T19:06:50.994Z,13.07
2019-01-16T19:09:50.759Z,12.67
2019-01-16T19:12:46.074Z,12.87
2019-01-16T19:15:38.078Z,12.27
2019-01-16T19:18:37.866Z,11.70
2019-01-16T19:21:31.879Z,10.83
2019-01-16T19:24:32.198Z,10.20
2019-01-16T19:27:21.501Z,11.57
2019-01-16T19:30:21.752Z,11.37
2019-01-16T19:33:21.420Z,12.27
2019-01-16T19:36:24.488Z,12.80
2019-01-16T19:39:24.510Z,12.60
2019-01-16T19:42:24.065Z,14.50
2019-01-16T19:45:24.367Z,12.53
2019-01-16T19:48:24.542Z,13.93
2019-01-16T19:51:24.081Z,17.87
2019-01-16T19:54:24.357Z,17.47
2019-01-16T19:57:22.181Z,18.97
2019-01-16T20:00:22.408Z,21.23
2019-01-16T20:03:23.482Z,20.40
2019-01-16T20:06:15.913Z,21.73
2019-01-16T20:09:15.685Z,19.20
2019-01-16T20:12:15.103Z,15.53
2019-01-16T20:15:14.713Z,16.17
2019-01-16T20:18:14.464Z,15.97
2019-01-16T20:21:17.761Z,15.87
2019-01-16T20:24:12.681Z,15.17
2019-01-16T20:27:12.914Z,13.87
2019-01-16T20:30:18.243Z,14.03
2019-01-16T20:33:18.029Z,13.33
2019-01-16T20:36:16.934Z,13.20
2019-01-16T20:39:16.546Z,13.27
2019-01-16T20:42:05.190Z,13.93
2019-01-16T20:44:55.718Z,13.90
2019-01-16T20:47:34.086Z,14.30
2019-01-16T20:50:33.893Z,14.73
2019-01-16T20:53:17.935Z,13.70
2019-01-16T20:56:17.832Z,14.40
2019-01-16T20:59:05.500Z,14.47
2019-01-16T21:01:59.901Z,14.63
2019-01-16T21:04:46.054Z,13.33
2019-01-16T21:07:51.981Z,13.97
2019-01-16T21:10:45.525Z,15.60
2019-01-16T21:13:37.053Z,18.40
2019-01-16T21:16:21.286Z,20.27
2019-01-16T21:19:05.040Z,20.43
2019-01-16T21:21:52.750Z,19.43
2019-01-16T21:24:52.206Z,18.57
2019-01-16T21:27:39.889Z,15.33
2019-01-16T21:30:35.774Z,16.43
2019-01-16T21:33:35.522Z,15.23
2019-01-16T21:36:29.087Z,14.03
2019-01-16T21:39:09.197Z,14.60
2019-01-16T21:41:46.338Z,12.60
2019-01-16T21:44:34.173Z,12.60
2019-01-16T21:47:28.544Z,13.03
2019-01-16T21:50:28.514Z,11.50
2019-01-16T21:53:16.589Z,11.53
2019-01-16T21:55:53.482Z,11.20
2019-01-16T21:58:41.181Z,10.83
2019-01-16T22:01:38.125Z,11.73
2019-01-16T22:04:24.553Z,10.97
2019-01-16T22:07:10.778Z,11.60
2019-01-16T22:09:57.141Z,11.43
2019-01-16T22:12:51.098Z,10.93
2019-01-16T22:15:35.927Z,11.47
2019-01-16T22:18:22.285Z,12.00
2019-01-16T22:20:58.177Z,11.13
2019-01-16T22:24:03.593Z,11.80
2019-01-16T22:26:50.034Z,11.90
2019-01-16T22:29:37.730Z,11.07
2019-01-16T22:32:14.065Z,11.00
2019-01-16T22:35:04.825Z,10.30
2019-01-16T22:37:42.169Z,11.27
2019-01-16T22:40:29.861Z,10.00
2019-01-16T22:43:17.401Z,10.27
2019-01-16T22:46:05.433Z,10.43
2019-01-16T22:48:53.197Z,11.27
2019-01-16T22:51:37.337Z,11.30
2019-01-16T22:54:25.068Z,11.17
2019-01-16T22:57:17.137Z,12.00
2019-01-16T23:00:03.216Z,11.33
